sensor_id;sensor_type;location;lat;lon;timestamp;temperature;humidity
52471;DHT22;38382;53.160;7.026;2022-07-10T00:02:01;14.40;99.90
52471;DHT22;38382;53.160;7.026;2022-07-10T00:04:27;14.40;99.90
52471;DHT22;38382;53.160;7.026;2022-07-10T00:06:52;14.40;99.90
52471;DHT22;38382;53.160;7.026;2022-07-10T00:09:18;14.40;99.90
52471;DHT22;38382;53.160;7.026;2022-07-10T00:11:44;14.40;99.90
52471;DHT22;38382;53.160;7.026;2022-07-10T00:14:09;14.40;99.90
52471;DHT22;38382;53.160;7.026;2022-07-10T00:16:35;14.40;99.90
52471;DHT22;38382;53.160;7.026;2022-07-10T00:19:01;14.40;99.90
52471;DHT22;38382;53.160;7.026;2022-07-10T00:21:27;14.30;99.90
52471;DHT22;38382;53.160;7.026;2022-07-10T00:23:53;14.40;99.90
52471;DHT22;38382;53.160;7.026;2022-07-10T00:26:18;14.70;99.90
52471;DHT22;38382;53.160;7.026;2022-07-10T00:28:44;14.40;99.90
52471;DHT22;38382;53.160;7.026;2022-07-10T00:31:10;14.30;99.90
52471;DHT22;38382;53.160;7.026;2022-07-10T00:33:37;14.40;99.90
52471;DHT22;38382;53.160;7.026;2022-07-10T00:36:04;14.40;99.90
52471;DHT22;38382;53.160;7.026;2022-07-10T00:38:30;14.40;99.90
52471;DHT22;38382;53.160;7.026;2022-07-10T00:40:56;14.40;99.90
52471;DHT22;38382;53.160;7.026;2022-07-10T00:43:22;14.40;99.90
52471;DHT22;38382;53.160;7.026;2022-07-10T00:48:16;14.30;99.90
52471;DHT22;38382;53.160;7.026;2022-07-10T00:50:44;14.40;99.90
52471;DHT22;38382;53.160;7.026;2022-07-10T00:53:11;14.90;99.90
52471;DHT22;38382;53.160;7.026;2022-07-10T00:55:39;14.30;99.90
52471;DHT22;38382;53.160;7.026;2022-07-10T00:58:10;14.20;99.90
52471;DHT22;38382;53.160;7.026;2022-07-10T01:00:36;14.20;99.90
52471;DHT22;38382;53.160;7.026;2022-07-10T01:03:03;14.20;99.90
52471;DHT22;38382;53.160;7.026;2022-07-10T01:05:29;14.20;99.90
52471;DHT22;38382;53.160;7.026;2022-07-10T01:07:55;14.10;99.90
52471;DHT22;38382;53.160;7.026;2022-07-10T01:10:20;14.00;99.90
52471;DHT22;38382;53.160;7.026;2022-07-10T01:12:46;13.90;99.90
52471;DHT22;38382;53.160;7.026;2022-07-10T01:15:12;13.90;99.90
52471;DHT22;38382;53.160;7.026;2022-07-10T01:17:38;13.90;99.90
52471;DHT22;38382;53.160;7.026;2022-07-10T01:20:08;14.00;99.90
52471;DHT22;38382;53.160;7.026;2022-07-10T01:22:36;14.00;99.90
52471;DHT22;38382;53.160;7.026;2022-07-10T01:25:02;13.90;99.90
52471;DHT22;38382;53.160;7.026;2022-07-10T01:27:28;14.00;99.90
52471;DHT22;38382;53.160;7.026;2022-07-10T01:29:54;14.00;99.90
52471;DHT22;38382;53.160;7.026;2022-07-10T01:32:19;14.00;99.90
52471;DHT22;38382;53.160;7.026;2022-07-10T01:34:45;14.00;99.90
52471;DHT22;38382;53.160;7.026;2022-07-10T01:37:12;14.00;99.90
52471;DHT22;38382;53.160;7.026;2022-07-10T01:39:38;14.00;99.90
52471;DHT22;38382;53.160;7.026;2022-07-10T01:42:04;14.00;99.90
52471;DHT22;38382;53.160;7.026;2022-07-10T01:44:29;14.00;99.90
52471;DHT22;38382;53.160;7.026;2022-07-10T01:46:55;14.00;99.90
52471;DHT22;38382;53.160;7.026;2022-07-10T01:49:21;14.00;99.90
52471;DHT22;38382;53.160;7.026;2022-07-10T01:51:46;14.00;99.90
52471;DHT22;38382;53.160;7.026;2022-07-10T01:54:12;14.00;99.90
52471;DHT22;38382;53.160;7.026;2022-07-10T01:56:38;14.00;99.90
52471;DHT22;38382;53.160;7.026;2022-07-10T01:59:04;14.10;99.90
52471;DHT22;38382;53.160;7.026;2022-07-10T02:01:30;13.90;99.90
52471;DHT22;38382;53.160;7.026;2022-07-10T02:03:56;13.90;99.90
52471;DHT22;38382;53.160;7.026;2022-07-10T02:06:57;13.90;99.90
52471;DHT22;38382;53.160;7.026;2022-07-10T02:09:23;13.90;99.90
52471;DHT22;38382;53.160;7.026;2022-07-10T02:11:49;13.90;99.90
52471;DHT22;38382;53.160;7.026;2022-07-10T02:14:15;13.80;99.90
52471;DHT22;38382;53.160;7.026;2022-07-10T02:16:40;13.80;99.90
52471;DHT22;38382;53.160;7.026;2022-07-10T02:19:06;13.80;99.90
52471;DHT22;38382;53.160;7.026;2022-07-10T02:21:32;14.10;99.90
52471;DHT22;38382;53.160;7.026;2022-07-10T02:23:58;13.80;99.90
52471;DHT22;38382;53.160;7.026;2022-07-10T02:26:23;13.80;99.90
52471;DHT22;38382;53.160;7.026;2022-07-10T02:28:49;13.90;99.90
52471;DHT22;38382;53.160;7.026;2022-07-10T02:31:15;13.80;99.90
52471;DHT22;38382;53.160;7.026;2022-07-10T02:33:41;14.00;99.90
52471;DHT22;38382;53.160;7.026;2022-07-10T02:36:06;13.90;99.90
52471;DHT22;38382;53.160;7.026;2022-07-10T02:38:32;13.80;99.90
52471;DHT22;38382;53.160;7.026;2022-07-10T02:40:58;13.80;99.90
52471;DHT22;38382;53.160;7.026;2022-07-10T02:43:23;13.90;99.90
52471;DHT22;38382;53.160;7.026;2022-07-10T02:48:19;13.90;99.90
52471;DHT22;38382;53.160;7.026;2022-07-10T02:50:45;13.90;99.90
52471;DHT22;38382;53.160;7.026;2022-07-10T02:53:11;13.90;99.90
52471;DHT22;38382;53.160;7.026;2022-07-10T02:55:37;13.80;99.90
52471;DHT22;38382;53.160;7.026;2022-07-10T02:58:02;13.80;99.90
52471;DHT22;38382;53.160;7.026;2022-07-10T03:00:29;13.90;99.90
52471;DHT22;38382;53.160;7.026;2022-07-10T03:02:55;13.80;99.90
52471;DHT22;38382;53.160;7.026;2022-07-10T03:05:21;13.90;99.90
52471;DHT22;38382;53.160;7.026;2022-07-10T03:07:47;13.80;99.90
52471;DHT22;38382;53.160;7.026;2022-07-10T03:10:13;13.70;99.90
52471;DHT22;38382;53.160;7.026;2022-07-10T03:12:38;13.70;99.90
52471;DHT22;38382;53.160;7.026;2022-07-10T03:15:05;13.70;99.90
52471;DHT22;38382;53.160;7.026;2022-07-10T03:17:31;13.60;99.90
52471;DHT22;38382;53.160;7.026;2022-07-10T03:19:57;13.70;99.90
52471;DHT22;38382;53.160;7.026;2022-07-10T03:22:23;13.60;99.90
52471;DHT22;38382;53.160;7.026;2022-07-10T03:24:48;13.50;99.90
52471;DHT22;38382;53.160;7.026;2022-07-10T03:27:15;13.50;99.90
52471;DHT22;38382;53.160;7.026;2022-07-10T03:29:40;13.40;99.90
52471;DHT22;38382;53.160;7.026;2022-07-10T03:32:07;13.40;99.90
52471;DHT22;38382;53.160;7.026;2022-07-10T03:34:33;13.40;99.90
52471;DHT22;38382;53.160;7.026;2022-07-10T03:36:59;13.40;99.90
52471;DHT22;38382;53.160;7.026;2022-07-10T03:39:28;13.40;99.90
52471;DHT22;38382;53.160;7.026;2022-07-10T03:41:54;13.30;99.90
52471;DHT22;38382;53.160;7.026;2022-07-10T03:44:19;13.40;99.90
52471;DHT22;38382;53.160;7.026;2022-07-10T03:46:45;13.30;99.90
52471;DHT22;38382;53.160;7.026;2022-07-10T03:49:11;13.30;99.90
52471;DHT22;38382;53.160;7.026;2022-07-10T03:51:37;13.40;99.90
52471;DHT22;38382;53.160;7.026;2022-07-10T03:54:03;13.30;99.90
52471;DHT22;38382;53.160;7.026;2022-07-10T03:56:28;13.30;99.90
52471;DHT22;38382;53.160;7.026;2022-07-10T03:59:12;13.30;99.90
52471;DHT22;38382;53.160;7.026;2022-07-10T04:01:38;13.30;99.90
52471;DHT22;38382;53.160;7.026;2022-07-10T04:04:04;13.40;99.90
52471;DHT22;38382;53.160;7.026;2022-07-10T04:06:29;13.80;99.90
52471;DHT22;38382;53.160;7.026;2022-07-10T04:08:55;13.60;99.90
52471;DHT22;38382;53.160;7.026;2022-07-10T04:11:21;13.50;99.90
52471;DHT22;38382;53.160;7.026;2022-07-10T04:13:47;13.50;99.90
52471;DHT22;38382;53.160;7.026;2022-07-10T04:18:48;13.50;99.90
52471;DHT22;38382;53.160;7.026;2022-07-10T04:21:14;13.50;99.90
52471;DHT22;38382;53.160;7.026;2022-07-10T04:23:40;13.50;99.90
52471;DHT22;38382;53.160;7.026;2022-07-10T04:26:06;13.50;99.90
52471;DHT22;38382;53.160;7.026;2022-07-10T04:28:31;13.50;99.90
52471;DHT22;38382;53.160;7.026;2022-07-10T04:30:57;13.60;99.90
52471;DHT22;38382;53.160;7.026;2022-07-10T04:33:23;13.50;99.90
52471;DHT22;38382;53.160;7.026;2022-07-10T04:35:49;13.90;99.90
52471;DHT22;38382;53.160;7.026;2022-07-10T04:38:14;13.60;99.90
52471;DHT22;38382;53.160;7.026;2022-07-10T04:40:40;13.60;99.90
52471;DHT22;38382;53.160;7.026;2022-07-10T04:43:06;13.60;99.90
52471;DHT22;38382;53.160;7.026;2022-07-10T04:45:31;13.70;99.90
52471;DHT22;38382;53.160;7.026;2022-07-10T04:47:57;13.80;99.90
52471;DHT22;38382;53.160;7.026;2022-07-10T04:50:23;13.90;99.90
52471;DHT22;38382;53.160;7.026;2022-07-10T04:52:48;13.90;99.90
52471;DHT22;38382;53.160;7.026;2022-07-10T04:55:14;14.00;99.90
52471;DHT22;38382;53.160;7.026;2022-07-10T04:57:40;14.10;99.90
52471;DHT22;38382;53.160;7.026;2022-07-10T05:00:10;14.30;99.90
52471;DHT22;38382;53.160;7.026;2022-07-10T05:02:36;14.40;99.90
52471;DHT22;38382;53.160;7.026;2022-07-10T05:05:02;14.50;99.90
52471;DHT22;38382;53.160;7.026;2022-07-10T05:07:28;14.50;99.90
52471;DHT22;38382;53.160;7.026;2022-07-10T05:09:53;14.60;99.90
52471;DHT22;38382;53.160;7.026;2022-07-10T05:12:19;14.70;99.90
52471;DHT22;38382;53.160;7.026;2022-07-10T05:14:45;14.70;99.90
52471;DHT22;38382;53.160;7.026;2022-07-10T05:17:10;14.80;99.90
52471;DHT22;38382;53.160;7.026;2022-07-10T05:19:36;14.80;99.90
52471;DHT22;38382;53.160;7.026;2022-07-10T05:22:02;15.00;99.90
52471;DHT22;38382;53.160;7.026;2022-07-10T05:24:28;14.80;99.90
52471;DHT22;38382;53.160;7.026;2022-07-10T05:26:53;14.70;99.90
52471;DHT22;38382;53.160;7.026;2022-07-10T05:29:19;14.80;99.90
52471;DHT22;38382;53.160;7.026;2022-07-10T05:31:45;14.90;99.90
52471;DHT22;38382;53.160;7.026;2022-07-10T05:34:10;14.70;99.90
52471;DHT22;38382;53.160;7.026;2022-07-10T05:36:36;14.70;99.90
52471;DHT22;38382;53.160;7.026;2022-07-10T05:39:02;14.70;99.90
52471;DHT22;38382;53.160;7.026;2022-07-10T05:41:28;14.70;99.90
52471;DHT22;38382;53.160;7.026;2022-07-10T05:43:54;14.80;99.90
52471;DHT22;38382;53.160;7.026;2022-07-10T05:46:19;14.80;99.90
52471;DHT22;38382;53.160;7.026;2022-07-10T05:48:45;14.80;99.90
52471;DHT22;38382;53.160;7.026;2022-07-10T05:51:11;14.80;99.90
52471;DHT22;38382;53.160;7.026;2022-07-10T05:53:37;14.90;99.90
52471;DHT22;38382;53.160;7.026;2022-07-10T05:56:03;14.90;99.90
52471;DHT22;38382;53.160;7.026;2022-07-10T05:58:29;14.90;99.90
52471;DHT22;38382;53.160;7.026;2022-07-10T06:00:55;14.90;99.90
52471;DHT22;38382;53.160;7.026;2022-07-10T06:03:21;14.90;99.90
52471;DHT22;38382;53.160;7.026;2022-07-10T06:05:47;15.00;99.90
52471;DHT22;38382;53.160;7.026;2022-07-10T06:08:13;15.00;99.90
52471;DHT22;38382;53.160;7.026;2022-07-10T06:10:39;15.10;99.90
52471;DHT22;38382;53.160;7.026;2022-07-10T06:13:06;15.00;99.90
52471;DHT22;38382;53.160;7.026;2022-07-10T06:15:32;15.10;99.90
52471;DHT22;38382;53.160;7.026;2022-07-10T06:17:57;15.00;99.90
52471;DHT22;38382;53.160;7.026;2022-07-10T06:20:26;15.10;99.90
52471;DHT22;38382;53.160;7.026;2022-07-10T06:22:52;15.10;99.90
52471;DHT22;38382;53.160;7.026;2022-07-10T06:25:18;15.00;99.90
52471;DHT22;38382;53.160;7.026;2022-07-10T06:27:44;15.10;99.90
52471;DHT22;38382;53.160;7.026;2022-07-10T06:30:10;15.10;99.90
52471;DHT22;38382;53.160;7.026;2022-07-10T06:32:36;15.10;99.90
52471;DHT22;38382;53.160;7.026;2022-07-10T06:35:02;15.10;99.90
52471;DHT22;38382;53.160;7.026;2022-07-10T06:37:30;15.10;99.90
52471;DHT22;38382;53.160;7.026;2022-07-10T06:39:56;15.10;99.90
52471;DHT22;38382;53.160;7.026;2022-07-10T06:42:21;15.20;99.90
52471;DHT22;38382;53.160;7.026;2022-07-10T06:44:47;15.30;99.90
52471;DHT22;38382;53.160;7.026;2022-07-10T06:47:15;15.20;99.90
52471;DHT22;38382;53.160;7.026;2022-07-10T06:50:05;15.30;99.90
52471;DHT22;38382;53.160;7.026;2022-07-10T06:52:32;15.30;99.90
52471;DHT22;38382;53.160;7.026;2022-07-10T06:54:59;15.40;99.90
52471;DHT22;38382;53.160;7.026;2022-07-10T06:57:25;15.70;99.90
52471;DHT22;38382;53.160;7.026;2022-07-10T06:59:51;15.60;99.90
52471;DHT22;38382;53.160;7.026;2022-07-10T07:02:18;15.70;99.90
52471;DHT22;38382;53.160;7.026;2022-07-10T07:04:44;15.90;99.90
52471;DHT22;38382;53.160;7.026;2022-07-10T07:07:13;16.00;99.90
52471;DHT22;38382;53.160;7.026;2022-07-10T07:09:40;16.20;99.90
52471;DHT22;38382;53.160;7.026;2022-07-10T07:12:06;16.30;99.90
52471;DHT22;38382;53.160;7.026;2022-07-10T07:14:33;16.40;99.90
52471;DHT22;38382;53.160;7.026;2022-07-10T07:16:58;16.40;99.90
52471;DHT22;38382;53.160;7.026;2022-07-10T07:19:30;16.50;99.90
52471;DHT22;38382;53.160;7.026;2022-07-10T07:22:19;16.60;99.90
52471;DHT22;38382;53.160;7.026;2022-07-10T07:25:05;16.60;99.90
52471;DHT22;38382;53.160;7.026;2022-07-10T07:27:31;16.70;99.90
52471;DHT22;38382;53.160;7.026;2022-07-10T07:30:04;16.70;99.90
52471;DHT22;38382;53.160;7.026;2022-07-10T07:32:30;16.70;99.90
52471;DHT22;38382;53.160;7.026;2022-07-10T07:34:56;16.60;99.90
52471;DHT22;38382;53.160;7.026;2022-07-10T07:37:21;16.60;99.90
52471;DHT22;38382;53.160;7.026;2022-07-10T07:39:52;16.70;99.90
52471;DHT22;38382;53.160;7.026;2022-07-10T07:42:17;16.80;99.90
52471;DHT22;38382;53.160;7.026;2022-07-10T07:44:46;16.90;99.90
52471;DHT22;38382;53.160;7.026;2022-07-10T07:47:16;17.00;99.90
52471;DHT22;38382;53.160;7.026;2022-07-10T07:50:15;17.10;99.90
52471;DHT22;38382;53.160;7.026;2022-07-10T07:52:58;17.20;99.90
52471;DHT22;38382;53.160;7.026;2022-07-10T07:55:24;17.50;99.90
52471;DHT22;38382;53.160;7.026;2022-07-10T07:57:54;17.60;99.90
52471;DHT22;38382;53.160;7.026;2022-07-10T08:00:24;16.80;99.90
52471;DHT22;38382;53.160;7.026;2022-07-10T08:02:53;17.60;99.90
52471;DHT22;38382;53.160;7.026;2022-07-10T08:05:20;17.60;99.90
52471;DHT22;38382;53.160;7.026;2022-07-10T08:07:49;17.60;99.90
52471;DHT22;38382;53.160;7.026;2022-07-10T08:10:19;17.60;99.90
52471;DHT22;38382;53.160;7.026;2022-07-10T08:12:45;17.80;99.90
52471;DHT22;38382;53.160;7.026;2022-07-10T08:15:12;17.70;99.90
52471;DHT22;38382;53.160;7.026;2022-07-10T08:17:39;17.70;99.90
52471;DHT22;38382;53.160;7.026;2022-07-10T08:20:06;17.50;99.90
52471;DHT22;38382;53.160;7.026;2022-07-10T08:22:33;17.50;99.90
52471;DHT22;38382;53.160;7.026;2022-07-10T08:25:00;17.40;99.90
52471;DHT22;38382;53.160;7.026;2022-07-10T08:27:26;17.40;99.90
52471;DHT22;38382;53.160;7.026;2022-07-10T08:29:52;17.40;99.90
52471;DHT22;38382;53.160;7.026;2022-07-10T08:32:18;17.40;99.90
52471;DHT22;38382;53.160;7.026;2022-07-10T08:34:44;17.30;99.90
52471;DHT22;38382;53.160;7.026;2022-07-10T08:37:12;17.20;99.90
52471;DHT22;38382;53.160;7.026;2022-07-10T08:39:38;17.20;99.90
52471;DHT22;38382;53.160;7.026;2022-07-10T08:42:06;17.10;99.90
52471;DHT22;38382;53.160;7.026;2022-07-10T08:44:33;17.10;99.90
52471;DHT22;38382;53.160;7.026;2022-07-10T08:46:59;17.00;99.90
52471;DHT22;38382;53.160;7.026;2022-07-10T08:49:29;17.00;99.90
52471;DHT22;38382;53.160;7.026;2022-07-10T08:52:03;17.00;99.90
52471;DHT22;38382;53.160;7.026;2022-07-10T08:54:30;17.00;99.90
52471;DHT22;38382;53.160;7.026;2022-07-10T08:56:57;16.80;99.90
52471;DHT22;38382;53.160;7.026;2022-07-10T08:59:23;16.80;99.90
52471;DHT22;38382;53.160;7.026;2022-07-10T09:01:49;16.80;99.90
52471;DHT22;38382;53.160;7.026;2022-07-10T09:04:19;16.80;99.90
52471;DHT22;38382;53.160;7.026;2022-07-10T09:06:45;16.80;99.90
52471;DHT22;38382;53.160;7.026;2022-07-10T09:09:11;16.90;99.90
52471;DHT22;38382;53.160;7.026;2022-07-10T09:11:39;17.00;99.90
52471;DHT22;38382;53.160;7.026;2022-07-10T09:14:11;17.00;99.90
52471;DHT22;38382;53.160;7.026;2022-07-10T09:16:43;17.10;99.90
52471;DHT22;38382;53.160;7.026;2022-07-10T09:19:25;17.20;99.90
52471;DHT22;38382;53.160;7.026;2022-07-10T09:22:02;17.70;99.90
52471;DHT22;38382;53.160;7.026;2022-07-10T09:24:38;17.40;99.90
52471;DHT22;38382;53.160;7.026;2022-07-10T09:27:05;17.50;99.90
52471;DHT22;38382;53.160;7.026;2022-07-10T09:29:32;17.60;99.90
52471;DHT22;38382;53.160;7.026;2022-07-10T09:31:59;17.70;99.90
52471;DHT22;38382;53.160;7.026;2022-07-10T09:34:41;17.80;99.90
52471;DHT22;38382;53.160;7.026;2022-07-10T09:37:26;17.90;99.90
52471;DHT22;38382;53.160;7.026;2022-07-10T09:40:12;18.00;99.90
52471;DHT22;38382;53.160;7.026;2022-07-10T09:43:17;18.00;99.90
52471;DHT22;38382;53.160;7.026;2022-07-10T09:48:23;17.90;99.90
52471;DHT22;38382;53.160;7.026;2022-07-10T09:50:52;17.80;99.90
52471;DHT22;38382;53.160;7.026;2022-07-10T09:53:18;17.70;99.90
52471;DHT22;38382;53.160;7.026;2022-07-10T09:55:51;17.80;99.90
52471;DHT22;38382;53.160;7.026;2022-07-10T09:58:22;17.50;99.90
52471;DHT22;38382;53.160;7.026;2022-07-10T10:00:55;17.60;99.90
52471;DHT22;38382;53.160;7.026;2022-07-10T10:03:25;17.60;99.90
52471;DHT22;38382;53.160;7.026;2022-07-10T10:05:55;17.50;99.90
52471;DHT22;38382;53.160;7.026;2022-07-10T10:12:39;17.20;99.90
52471;DHT22;38382;53.160;7.026;2022-07-10T10:15:11;17.30;99.90
52471;DHT22;38382;53.160;7.026;2022-07-10T10:17:39;17.30;99.90
52471;DHT22;38382;53.160;7.026;2022-07-10T10:20:09;16.90;99.90
52471;DHT22;38382;53.160;7.026;2022-07-10T10:22:55;17.40;99.90
52471;DHT22;38382;53.160;7.026;2022-07-10T10:25:24;17.40;99.90
52471;DHT22;38382;53.160;7.026;2022-07-10T10:28:29;17.40;99.90
52471;DHT22;38382;53.160;7.026;2022-07-10T10:30:59;17.10;99.90
52471;DHT22;38382;53.160;7.026;2022-07-10T10:36:02;17.50;99.90
52471;DHT22;38382;53.160;7.026;2022-07-10T10:39:18;17.50;99.90
52471;DHT22;38382;53.160;7.026;2022-07-10T10:41:54;17.20;99.90
52471;DHT22;38382;53.160;7.026;2022-07-10T10:44:26;17.50;99.90
52471;DHT22;38382;53.160;7.026;2022-07-10T10:46:59;17.50;99.90
52471;DHT22;38382;53.160;7.026;2022-07-10T10:49:55;17.40;99.90
52471;DHT22;38382;53.160;7.026;2022-07-10T10:52:23;17.40;99.90
52471;DHT22;38382;53.160;7.026;2022-07-10T10:57:42;17.70;99.90
52471;DHT22;38382;53.160;7.026;2022-07-10T11:00:12;17.90;99.90
52471;DHT22;38382;53.160;7.026;2022-07-10T11:02:49;18.00;99.90
52471;DHT22;38382;53.160;7.026;2022-07-10T11:05:55;18.20;99.90
52471;DHT22;38382;53.160;7.026;2022-07-10T11:08:45;18.20;99.90
52471;DHT22;38382;53.160;7.026;2022-07-10T11:11:36;18.10;99.90
52471;DHT22;38382;53.160;7.026;2022-07-10T11:14:03;17.50;99.90
52471;DHT22;38382;53.160;7.026;2022-07-10T11:16:38;18.00;99.90
52471;DHT22;38382;53.160;7.026;2022-07-10T11:19:19;18.10;99.90
52471;DHT22;38382;53.160;7.026;2022-07-10T11:22:16;18.00;99.90
52471;DHT22;38382;53.160;7.026;2022-07-10T11:28:15;18.20;99.90
52471;DHT22;38382;53.160;7.026;2022-07-10T11:30:54;18.20;99.90
52471;DHT22;38382;53.160;7.026;2022-07-10T11:33:25;18.30;99.90
52471;DHT22;38382;53.160;7.026;2022-07-10T11:35:55;18.10;99.90
52471;DHT22;38382;53.160;7.026;2022-07-10T11:38:25;18.10;99.90
52471;DHT22;38382;53.160;7.026;2022-07-10T11:40:51;17.90;99.90
52471;DHT22;38382;53.160;7.026;2022-07-10T11:43:21;17.80;99.90
52471;DHT22;38382;53.160;7.026;2022-07-10T11:48:24;17.60;99.90
52471;DHT22;38382;53.160;7.026;2022-07-10T11:50:50;17.60;99.90
52471;DHT22;38382;53.160;7.026;2022-07-10T11:53:26;17.70;99.90
52471;DHT22;38382;53.160;7.026;2022-07-10T11:55:52;17.80;99.90
52471;DHT22;38382;53.160;7.026;2022-07-10T11:58:19;17.80;99.90
52471;DHT22;38382;53.160;7.026;2022-07-10T12:01:00;17.90;99.90
52471;DHT22;38382;53.160;7.026;2022-07-10T12:03:34;17.80;99.90
52471;DHT22;38382;53.160;7.026;2022-07-10T12:06:08;17.80;99.90
52471;DHT22;38382;53.160;7.026;2022-07-10T12:08:45;17.70;99.90
52471;DHT22;38382;53.160;7.026;2022-07-10T12:11:15;17.60;99.90
52471;DHT22;38382;53.160;7.026;2022-07-10T12:13:42;17.60;99.90
52471;DHT22;38382;53.160;7.026;2022-07-10T12:16:08;17.60;99.90
52471;DHT22;38382;53.160;7.026;2022-07-10T12:18:34;17.60;99.90
52471;DHT22;38382;53.160;7.026;2022-07-10T12:21:00;17.60;99.90
52471;DHT22;38382;53.160;7.026;2022-07-10T12:23:28;17.60;99.90
52471;DHT22;38382;53.160;7.026;2022-07-10T12:25:58;17.80;99.90
52471;DHT22;38382;53.160;7.026;2022-07-10T12:28:23;17.70;99.90
52471;DHT22;38382;53.160;7.026;2022-07-10T12:34:05;17.80;99.90
52471;DHT22;38382;53.160;7.026;2022-07-10T12:36:49;17.80;99.90
52471;DHT22;38382;53.160;7.026;2022-07-10T12:39:20;18.80;99.90
52471;DHT22;38382;53.160;7.026;2022-07-10T12:42:00;17.90;99.90
52471;DHT22;38382;53.160;7.026;2022-07-10T12:44:54;18.00;99.90
52471;DHT22;38382;53.160;7.026;2022-07-10T12:50:15;18.10;99.90
52471;DHT22;38382;53.160;7.026;2022-07-10T12:52:44;18.00;99.90
52471;DHT22;38382;53.160;7.026;2022-07-10T14:35:44;18.40;99.90
52471;DHT22;38382;53.160;7.026;2022-07-10T14:38:10;18.50;99.90
52471;DHT22;38382;53.160;7.026;2022-07-10T14:40:35;18.50;99.90
52471;DHT22;38382;53.160;7.026;2022-07-10T14:43:01;18.50;99.90
52471;DHT22;38382;53.160;7.026;2022-07-10T14:45:27;18.50;99.90
52471;DHT22;38382;53.160;7.026;2022-07-10T14:47:52;18.50;99.90
52471;DHT22;38382;53.160;7.026;2022-07-10T14:50:20;18.50;99.90
52471;DHT22;38382;53.160;7.026;2022-07-10T14:52:45;18.40;99.90
52471;DHT22;38382;53.160;7.026;2022-07-10T14:55:11;18.30;99.90
52471;DHT22;38382;53.160;7.026;2022-07-10T14:57:37;18.20;99.90
52471;DHT22;38382;53.160;7.026;2022-07-10T15:00:04;18.10;99.90
52471;DHT22;38382;53.160;7.026;2022-07-10T15:02:30;18.10;99.90
52471;DHT22;38382;53.160;7.026;2022-07-10T15:04:55;18.00;99.90
52471;DHT22;38382;53.160;7.026;2022-07-10T15:07:21;18.10;99.90
52471;DHT22;38382;53.160;7.026;2022-07-10T15:09:47;18.30;99.90
52471;DHT22;38382;53.160;7.026;2022-07-10T15:12:13;18.50;99.90
52471;DHT22;38382;53.160;7.026;2022-07-10T15:14:38;18.70;99.90
52471;DHT22;38382;53.160;7.026;2022-07-10T15:19:34;18.90;99.90
52471;DHT22;38382;53.160;7.026;2022-07-10T15:22:00;19.00;99.90
52471;DHT22;38382;53.160;7.026;2022-07-10T15:24:26;19.30;99.90
52471;DHT22;38382;53.160;7.026;2022-07-10T15:26:51;19.60;99.90
52471;DHT22;38382;53.160;7.026;2022-07-10T15:29:17;19.90;99.90
52471;DHT22;38382;53.160;7.026;2022-07-10T15:31:43;20.10;99.90
52471;DHT22;38382;53.160;7.026;2022-07-10T15:34:10;20.30;99.90
52471;DHT22;38382;53.160;7.026;2022-07-10T15:36:40;20.40;99.90
52471;DHT22;38382;53.160;7.026;2022-07-10T15:39:05;20.50;99.90
52471;DHT22;38382;53.160;7.026;2022-07-10T15:41:31;20.60;99.90
52471;DHT22;38382;53.160;7.026;2022-07-10T15:43:58;20.60;99.90
52471;DHT22;38382;53.160;7.026;2022-07-10T15:46:24;20.40;99.90
52471;DHT22;38382;53.160;7.026;2022-07-10T15:48:50;20.30;99.90
52471;DHT22;38382;53.160;7.026;2022-07-10T15:51:16;20.10;99.90
52471;DHT22;38382;53.160;7.026;2022-07-10T15:53:42;20.00;99.90
52471;DHT22;38382;53.160;7.026;2022-07-10T15:56:08;19.80;99.90
52471;DHT22;38382;53.160;7.026;2022-07-10T15:58:34;19.80;99.90
52471;DHT22;38382;53.160;7.026;2022-07-10T16:01:00;19.70;99.90
52471;DHT22;38382;53.160;7.026;2022-07-10T16:03:26;19.70;99.90
52471;DHT22;38382;53.160;7.026;2022-07-10T16:05:52;19.70;99.90
52471;DHT22;38382;53.160;7.026;2022-07-10T16:08:17;19.60;99.90
52471;DHT22;38382;53.160;7.026;2022-07-10T16:10:47;19.60;99.90
52471;DHT22;38382;53.160;7.026;2022-07-10T16:13:13;19.60;99.90
52471;DHT22;38382;53.160;7.026;2022-07-10T16:15:38;19.40;99.90
52471;DHT22;38382;53.160;7.026;2022-07-10T16:18:05;19.50;99.90
52471;DHT22;38382;53.160;7.026;2022-07-10T16:20:32;19.40;99.90
52471;DHT22;38382;53.160;7.026;2022-07-10T16:23:01;19.40;99.90
52471;DHT22;38382;53.160;7.026;2022-07-10T16:25:27;19.30;99.90
52471;DHT22;38382;53.160;7.026;2022-07-10T16:28:11;19.20;99.90
52471;DHT22;38382;53.160;7.026;2022-07-10T16:30:36;19.10;99.90
52471;DHT22;38382;53.160;7.026;2022-07-10T16:33:08;19.10;99.90
52471;DHT22;38382;53.160;7.026;2022-07-10T16:35:34;19.10;99.90
52471;DHT22;38382;53.160;7.026;2022-07-10T16:37:59;19.20;99.90
52471;DHT22;38382;53.160;7.026;2022-07-10T16:40:25;19.30;99.90
52471;DHT22;38382;53.160;7.026;2022-07-10T16:42:51;19.30;99.90
52471;DHT22;38382;53.160;7.026;2022-07-10T16:45:16;19.30;99.90
52471;DHT22;38382;53.160;7.026;2022-07-10T16:47:42;19.30;99.90
52471;DHT22;38382;53.160;7.026;2022-07-10T16:50:08;19.20;99.90
52471;DHT22;38382;53.160;7.026;2022-07-10T16:52:34;19.20;99.90
52471;DHT22;38382;53.160;7.026;2022-07-10T16:55:03;19.20;99.90
52471;DHT22;38382;53.160;7.026;2022-07-10T16:57:29;19.10;99.90
52471;DHT22;38382;53.160;7.026;2022-07-10T16:59:55;19.10;99.90
52471;DHT22;38382;53.160;7.026;2022-07-10T17:02:21;19.10;99.90
52471;DHT22;38382;53.160;7.026;2022-07-10T17:04:47;19.10;99.90
52471;DHT22;38382;53.160;7.026;2022-07-10T17:07:12;19.00;99.90
52471;DHT22;38382;53.160;7.026;2022-07-10T17:09:38;19.00;99.90
52471;DHT22;38382;53.160;7.026;2022-07-10T17:12:05;19.00;99.90
52471;DHT22;38382;53.160;7.026;2022-07-10T17:14:32;19.00;99.90
52471;DHT22;38382;53.160;7.026;2022-07-10T17:19:26;19.10;99.90
52471;DHT22;38382;53.160;7.026;2022-07-10T17:21:52;19.10;99.90
52471;DHT22;38382;53.160;7.026;2022-07-10T17:24:18;19.00;99.90
52471;DHT22;38382;53.160;7.026;2022-07-10T17:26:46;19.00;99.90
52471;DHT22;38382;53.160;7.026;2022-07-10T17:29:11;18.90;99.90
52471;DHT22;38382;53.160;7.026;2022-07-10T17:31:37;18.90;99.90
52471;DHT22;38382;53.160;7.026;2022-07-10T17:34:03;18.90;99.90
52471;DHT22;38382;53.160;7.026;2022-07-10T17:36:30;18.80;99.90
52471;DHT22;38382;53.160;7.026;2022-07-10T17:38:56;18.70;99.90
52471;DHT22;38382;53.160;7.026;2022-07-10T17:41:21;18.70;99.90
52471;DHT22;38382;53.160;7.026;2022-07-10T17:43:47;18.60;99.90
52471;DHT22;38382;53.160;7.026;2022-07-10T17:46:13;18.60;99.90
52471;DHT22;38382;53.160;7.026;2022-07-10T17:48:39;18.60;99.90
52471;DHT22;38382;53.160;7.026;2022-07-10T17:51:05;18.60;99.90
52471;DHT22;38382;53.160;7.026;2022-07-10T17:53:30;18.60;99.90
52471;DHT22;38382;53.160;7.026;2022-07-10T17:55:59;18.60;99.90